createdAt,value
2018-07-20T00:00:40.379Z,19.20
2018-07-20T00:03:09.902Z,19.20
2018-07-20T00:05:38.576Z,19.20
2018-07-20T00:08:07.287Z,19.10
2018-07-20T00:10:35.927Z,19.00
2018-07-20T00:13:04.637Z,19.00
2018-07-20T00:15:33.297Z,19.00
2018-07-20T00:18:02.018Z,18.90
2018-07-20T00:20:30.780Z,18.90
2018-07-20T00:22:59.442Z,18.80
2018-07-20T00:25:28.156Z,18.80
2018-07-20T00:27:56.850Z,18.80
2018-07-20T00:30:25.553Z,18.70
2018-07-20T00:32:54.208Z,18.70
2018-07-20T00:35:22.888Z,18.60
2018-07-20T00:37:51.598Z,18.60
2018-07-20T00:40:20.326Z,18.60
2018-07-20T00:42:49.096Z,18.60
2018-07-20T00:45:17.833Z,18.50
2018-07-20T00:47:46.593Z,18.50
2018-07-20T00:50:15.277Z,18.40
2018-07-20T00:52:43.985Z,18.30
2018-07-20T00:55:12.720Z,18.20
2018-07-20T00:57:41.411Z,18.20
2018-07-20T01:00:10.126Z,18.10
2018-07-20T01:02:38.929Z,18.00
2018-07-20T01:05:07.747Z,17.90
2018-07-20T01:07:36.450Z,17.90
2018-07-20T01:10:05.174Z,17.80
2018-07-20T01:12:33.892Z,17.70
2018-07-20T01:15:02.575Z,17.70
2018-07-20T01:17:31.312Z,17.60
2018-07-20T01:22:28.329Z,17.50
2018-07-20T01:24:57.001Z,17.50
2018-07-20T01:27:25.678Z,17.40
2018-07-20T01:29:54.385Z,17.40
2018-07-20T01:32:23.043Z,17.40
2018-07-20T01:37:20.105Z,17.40
2018-07-20T01:39:48.857Z,17.40
2018-07-20T01:42:17.565Z,17.40
2018-07-20T01:44:46.229Z,17.30
2018-07-20T01:47:14.991Z,17.20
2018-07-20T01:49:43.715Z,17.10
2018-07-20T01:52:12.378Z,17.10
2018-07-20T01:54:41.086Z,17.10
2018-07-20T01:57:09.772Z,17.10
2018-07-20T01:59:38.496Z,17.10
2018-07-20T02:02:07.194Z,17.00
2018-07-20T02:04:35.856Z,16.90
2018-07-20T02:07:04.564Z,16.90
2018-07-20T02:09:33.254Z,16.90
2018-07-20T02:12:01.897Z,16.90
2018-07-20T02:14:30.561Z,16.90
2018-07-20T02:16:59.200Z,16.90
2018-07-20T02:19:27.887Z,16.80
2018-07-20T02:21:56.587Z,16.80
2018-07-20T02:24:25.212Z,16.70
2018-07-20T02:26:53.875Z,16.70
2018-07-20T02:29:22.642Z,16.60
2018-07-20T02:31:51.345Z,16.70
2018-07-20T02:34:20.030Z,16.70
2018-07-20T02:36:48.768Z,16.70
2018-07-20T02:41:45.824Z,16.70
2018-07-20T02:44:14.558Z,16.50
2018-07-20T02:46:43.250Z,16.50
2018-07-20T02:49:11.903Z,16.50
2018-07-20T02:51:40.591Z,16.50
2018-07-20T02:54:09.268Z,16.50
2018-07-20T02:56:37.905Z,16.50
2018-07-20T02:59:06.633Z,16.50
2018-07-20T03:01:35.279Z,16.50
2018-07-20T03:04:03.989Z,16.50
2018-07-20T03:06:32.721Z,16.40
2018-07-20T03:09:01.451Z,16.40
2018-07-20T03:11:30.121Z,16.40
2018-07-20T03:13:58.784Z,16.40
2018-07-20T03:16:27.511Z,16.30
2018-07-20T03:18:56.136Z,16.30
2018-07-20T03:21:24.842Z,16.30
2018-07-20T03:23:53.572Z,16.20
2018-07-20T03:26:22.288Z,16.20
2018-07-20T03:28:50.996Z,16.20
2018-07-20T03:31:19.682Z,16.20
2018-07-20T03:33:48.367Z,16.20
2018-07-20T03:36:17.040Z,16.10
2018-07-20T03:38:45.734Z,16.10
2018-07-20T03:41:14.395Z,16.10
2018-07-20T03:43:43.105Z,16.00
2018-07-20T03:46:11.776Z,16.10
2018-07-20T03:48:40.461Z,16.00
2018-07-20T03:51:09.137Z,16.00
2018-07-20T03:53:37.854Z,16.00
2018-07-20T03:56:06.733Z,16.00
2018-07-20T03:58:35.399Z,16.00
2018-07-20T04:01:04.044Z,16.00
2018-07-20T04:03:32.748Z,16.10
2018-07-20T04:06:01.398Z,16.10
2018-07-20T04:08:30.064Z,16.10
2018-07-20T04:10:58.730Z,16.10
2018-07-20T04:13:27.487Z,16.20
2018-07-20T04:15:56.156Z,16.20
2018-07-20T04:18:24.840Z,16.20
2018-07-20T04:20:53.570Z,16.20
2018-07-20T04:23:22.232Z,16.20
2018-07-20T04:25:50.884Z,16.20
2018-07-20T04:28:19.528Z,16.20
2018-07-20T04:33:16.513Z,16.30
2018-07-20T04:35:45.178Z,16.30
2018-07-20T04:38:13.873Z,16.40
2018-07-20T04:40:42.587Z,16.40
2018-07-20T04:43:11.323Z,16.40
2018-07-20T04:45:39.957Z,16.50
2018-07-20T04:48:08.589Z,16.60
2018-07-20T04:50:37.426Z,16.60
2018-07-20T04:53:06.091Z,16.70
2018-07-20T04:55:34.812Z,16.80
2018-07-20T05:00:31.806Z,16.90
2018-07-20T05:03:00.466Z,17.00
2018-07-20T05:05:29.159Z,17.10
2018-07-20T05:07:57.823Z,17.10
2018-07-20T05:10:26.545Z,17.20
2018-07-20T05:12:55.294Z,17.30
2018-07-20T05:15:23.951Z,17.40
2018-07-20T05:17:52.681Z,17.40
2018-07-20T05:20:21.379Z,17.50
2018-07-20T05:22:50.205Z,17.60
2018-07-20T05:25:18.949Z,17.70
2018-07-20T05:27:47.657Z,17.80
2018-07-20T05:30:16.363Z,17.80
2018-07-20T05:32:45.078Z,17.90
2018-07-20T05:35:13.750Z,18.00
2018-07-20T05:37:42.421Z,18.10
2018-07-20T05:40:11.200Z,18.20
2018-07-20T05:42:39.886Z,18.30
2018-07-20T05:45:08.714Z,18.40
2018-07-20T05:47:37.406Z,18.50
2018-07-20T05:52:34.964Z,18.70
2018-07-20T05:55:03.716Z,18.80
2018-07-20T05:57:32.911Z,19.00
2018-07-20T06:00:01.626Z,19.10
2018-07-20T06:02:30.394Z,19.10
2018-07-20T06:04:59.085Z,19.30
2018-07-20T06:07:27.799Z,19.30
2018-07-20T06:09:56.515Z,19.50
2018-07-20T06:12:25.238Z,19.50
2018-07-20T06:14:53.939Z,19.60
2018-07-20T06:17:24.383Z,19.70
2018-07-20T06:19:54.295Z,19.70
2018-07-20T06:22:23.111Z,19.90
2018-07-20T06:24:51.788Z,20.00
2018-07-20T06:27:20.494Z,20.10
2018-07-20T06:29:49.206Z,20.20
2018-07-20T06:32:17.865Z,20.30
2018-07-20T06:34:46.546Z,20.40
2018-07-20T06:39:44.071Z,20.50
2018-07-20T06:42:12.765Z,20.50
2018-07-20T06:44:41.475Z,20.50
2018-07-20T06:47:10.422Z,20.50
2018-07-20T06:49:39.190Z,20.40
2018-07-20T06:52:07.971Z,20.60
2018-07-20T06:54:36.691Z,20.60
2018-07-20T06:57:05.826Z,20.70
2018-07-20T06:59:34.487Z,20.90
2018-07-20T07:02:03.207Z,21.00
2018-07-20T07:04:31.844Z,21.00
2018-07-20T07:07:00.532Z,21.00
2018-07-20T07:09:29.251Z,21.10
2018-07-20T07:11:57.917Z,21.20
2018-07-20T07:14:26.601Z,21.30
2018-07-20T07:16:55.312Z,21.40
2018-07-20T07:19:24.018Z,21.50
2018-07-20T07:21:52.698Z,21.60
2018-07-20T07:24:21.352Z,21.70
2018-07-20T07:26:50.044Z,21.80
2018-07-20T07:29:18.770Z,22.10
2018-07-20T07:31:47.439Z,22.20
2018-07-20T07:34:16.132Z,22.20
2018-07-20T07:36:44.825Z,22.20
2018-07-20T07:39:13.667Z,22.20
2018-07-20T07:41:42.819Z,22.30
2018-07-20T07:44:11.549Z,22.50
2018-07-20T07:46:40.219Z,22.60
2018-07-20T07:49:08.894Z,22.70
2018-07-20T07:51:37.652Z,22.70
2018-07-20T07:54:06.458Z,22.90
2018-07-20T07:56:35.144Z,23.00
2018-07-20T07:59:03.846Z,23.10
2018-07-20T08:01:32.492Z,23.20
2018-07-20T08:04:01.137Z,23.20
2018-07-20T08:06:29.882Z,23.30
2018-07-20T08:08:58.667Z,23.30
2018-07-20T08:11:27.360Z,23.40
2018-07-20T08:13:56.007Z,23.50
2018-07-20T08:16:24.687Z,23.50
2018-07-20T08:18:53.412Z,23.50
2018-07-20T08:21:22.128Z,23.60
2018-07-20T08:23:50.825Z,23.60
2018-07-20T08:26:19.506Z,23.60
2018-07-20T08:28:48.351Z,23.70
2018-07-20T08:31:17.202Z,23.70
2018-07-20T08:33:46.026Z,23.80
2018-07-20T08:36:14.725Z,23.90
2018-07-20T08:38:43.470Z,24.10
2018-07-20T08:41:12.174Z,24.30
2018-07-20T08:43:40.958Z,24.30
2018-07-20T08:46:09.622Z,24.40
2018-07-20T08:48:38.360Z,24.50
2018-07-20T08:51:07.192Z,24.70
2018-07-20T08:53:35.908Z,24.40
2018-07-20T08:56:04.603Z,24.50
2018-07-20T08:58:33.357Z,24.10
2018-07-20T09:01:02.095Z,24.10
2018-07-20T09:03:30.812Z,24.50
2018-07-20T09:05:59.495Z,24.80
2018-07-20T09:08:28.192Z,25.10
2018-07-20T09:10:57.033Z,25.30
2018-07-20T09:13:25.819Z,25.50
2018-07-20T09:15:54.459Z,25.80
2018-07-20T09:18:23.158Z,25.90
2018-07-20T09:20:51.956Z,25.90
2018-07-20T09:23:20.610Z,25.90
2018-07-20T09:25:49.710Z,26.00
2018-07-20T09:28:18.512Z,26.10
2018-07-20T09:30:47.215Z,26.20
2018-07-20T09:33:16.044Z,26.30
2018-07-20T09:35:44.743Z,26.40
2018-07-20T09:38:13.469Z,26.50
2018-07-20T09:40:42.277Z,26.50
2018-07-20T09:43:11.039Z,26.60
2018-07-20T09:45:39.759Z,26.50
2018-07-20T09:48:08.465Z,26.50
2018-07-20T09:50:37.140Z,26.60
2018-07-20T09:53:06.179Z,26.70
2018-07-20T09:55:34.925Z,26.80
2018-07-20T09:58:03.708Z,27.10
2018-07-20T10:00:37.686Z,27.20
2018-07-20T10:03:06.810Z,27.20
2018-07-20T10:05:35.524Z,27.20
2018-07-20T10:08:04.292Z,27.10
2018-07-20T10:10:32.996Z,27.00
2018-07-20T10:13:01.766Z,26.90
2018-07-20T10:15:30.560Z,27.10
2018-07-20T10:17:59.329Z,26.90
2018-07-20T10:20:28.027Z,26.90
2018-07-20T10:22:56.709Z,26.90
2018-07-20T10:25:25.515Z,27.00
2018-07-20T10:27:54.351Z,27.10
2018-07-20T10:30:23.169Z,27.10
2018-07-20T10:32:51.861Z,27.10
2018-07-20T10:35:20.616Z,27.40
2018-07-20T10:37:49.415Z,27.80
2018-07-20T10:40:18.207Z,27.80
2018-07-20T10:42:46.958Z,27.90
2018-07-20T10:45:15.732Z,28.10
2018-07-20T10:47:44.447Z,28.10
2018-07-20T10:50:13.203Z,28.10
2018-07-20T10:52:41.945Z,28.00
2018-07-20T10:55:10.704Z,28.10
2018-07-20T11:00:07.865Z,28.30
2018-07-20T11:02:36.621Z,28.50
2018-07-20T11:05:05.408Z,28.50
2018-07-20T11:07:34.194Z,28.60
2018-07-20T11:10:02.885Z,28.70
2018-07-20T11:12:31.581Z,28.60
2018-07-20T11:15:00.275Z,28.70
2018-07-20T11:17:29.004Z,28.70
2018-07-20T11:19:57.681Z,28.80
2018-07-20T11:22:26.435Z,28.90
2018-07-20T11:24:55.190Z,28.80
2018-07-20T11:27:23.945Z,29.00
2018-07-20T11:29:52.700Z,28.70
2018-07-20T11:32:21.517Z,28.40
2018-07-20T11:34:50.326Z,28.50
2018-07-20T11:37:19.064Z,28.70
2018-07-20T11:39:47.757Z,29.00
2018-07-20T11:42:16.594Z,29.10
2018-07-20T11:44:45.296Z,29.30
2018-07-20T11:47:13.956Z,29.40
2018-07-20T11:49:42.686Z,29.60
2018-07-20T11:52:11.466Z,29.80
2018-07-20T11:54:40.504Z,29.60
2018-07-20T11:57:09.320Z,29.70
2018-07-20T11:59:38.028Z,29.70
2018-07-20T12:02:06.883Z,29.70
2018-07-20T12:04:35.611Z,29.90
2018-07-20T12:07:04.477Z,29.80
2018-07-20T12:09:33.289Z,29.80
2018-07-20T12:12:02.052Z,29.80
2018-07-20T12:14:31.595Z,29.90
2018-07-20T12:17:00.341Z,30.10
2018-07-20T12:19:29.178Z,30.30
2018-07-20T12:21:57.957Z,30.40
2018-07-20T12:24:26.757Z,30.10
2018-07-20T12:26:55.534Z,29.50
2018-07-20T12:29:24.216Z,29.80
2018-07-20T12:31:52.973Z,30.20
2018-07-20T12:34:21.741Z,30.40
2018-07-20T12:36:50.480Z,30.40
2018-07-20T12:39:19.220Z,30.60
2018-07-20T12:41:48.126Z,30.80
2018-07-20T12:44:16.911Z,30.70
2018-07-20T12:46:45.714Z,30.70
2018-07-20T12:49:14.413Z,30.70
2018-07-20T12:51:43.105Z,30.60
2018-07-20T12:54:11.841Z,30.50
2018-07-20T12:56:40.532Z,30.30
2018-07-20T12:59:09.274Z,30.50
2018-07-20T13:01:37.965Z,30.60
2018-07-20T13:04:06.926Z,30.80
2018-07-20T13:06:35.590Z,30.90
2018-07-20T13:09:06.188Z,31.10
2018-07-20T13:11:34.954Z,31.30
2018-07-20T13:14:03.847Z,31.40
2018-07-20T13:16:32.603Z,31.50
2018-07-20T13:19:01.476Z,31.40
2018-07-20T13:21:30.330Z,31.30
2018-07-20T13:23:59.085Z,31.20
2018-07-20T13:26:27.801Z,31.10
2018-07-20T13:28:56.469Z,31.30
2018-07-20T13:31:25.366Z,31.50
2018-07-20T13:33:54.116Z,31.60
2018-07-20T13:36:23.113Z,31.70
2018-07-20T13:38:51.845Z,31.60
2018-07-20T13:41:20.550Z,31.60
2018-07-20T13:43:49.251Z,31.70
2018-07-20T13:46:17.946Z,31.60
2018-07-20T13:48:46.803Z,31.50
2018-07-20T13:51:15.546Z,31.60
2018-07-20T13:53:44.278Z,31.50
2018-07-20T13:56:13.019Z,31.50
2018-07-20T13:58:41.737Z,31.40
2018-07-20T14:01:10.630Z,31.40
2018-07-20T14:03:39.366Z,31.20
2018-07-20T14:06:08.028Z,31.10
2018-07-20T14:08:36.844Z,31.30
2018-07-20T14:11:05.689Z,31.20
2018-07-20T14:13:34.422Z,31.10
2018-07-20T14:16:03.177Z,31.10
2018-07-20T14:18:31.901Z,31.30
2018-07-20T14:21:00.524Z,31.30
2018-07-20T14:23:29.328Z,31.20
2018-07-20T14:25:58.057Z,31.20
2018-07-20T14:28:26.888Z,31.00
2018-07-20T14:30:55.574Z,30.90
2018-07-20T14:33:24.536Z,30.80
2018-07-20T14:35:53.278Z,30.30
2018-07-20T14:38:22.041Z,30.50
2018-07-20T14:40:51.153Z,30.60
2018-07-20T14:43:19.872Z,30.70
2018-07-20T14:45:48.602Z,30.70
2018-07-20T14:48:17.308Z,30.80
2018-07-20T14:50:46.094Z,30.80
2018-07-20T14:53:14.754Z,30.80
2018-07-20T14:55:43.631Z,30.90
2018-07-20T14:58:12.335Z,31.00
2018-07-20T15:03:09.516Z,30.90
2018-07-20T15:05:38.227Z,30.70
2018-07-20T15:08:06.941Z,30.60
2018-07-20T15:10:35.721Z,30.70
2018-07-20T15:13:04.525Z,30.70
2018-07-20T15:15:33.235Z,30.70
2018-07-20T15:18:02.171Z,30.70
2018-07-20T15:20:30.903Z,30.60
2018-07-20T15:22:59.710Z,30.60
2018-07-20T15:25:28.444Z,30.50
2018-07-20T15:27:57.464Z,30.60
2018-07-20T15:30:26.179Z,30.40
2018-07-20T15:32:55.051Z,30.50
2018-07-20T15:35:23.852Z,30.60
2018-07-20T15:37:52.640Z,30.30
2018-07-20T15:40:21.482Z,30.30
2018-07-20T15:42:50.210Z,30.40
2018-07-20T15:45:19.010Z,30.80
2018-07-20T15:47:47.800Z,31.30
2018-07-20T15:50:16.644Z,31.80
2018-07-20T15:55:14.317Z,31.90
2018-07-20T15:57:43.101Z,31.70
2018-07-20T16:00:11.891Z,31.60
2018-07-20T16:02:40.687Z,31.60
2018-07-20T16:05:09.548Z,31.50
2018-07-20T16:07:38.315Z,31.40
2018-07-20T16:12:35.476Z,30.70
2018-07-20T16:15:04.374Z,30.60
2018-07-20T16:17:33.152Z,30.60
2018-07-20T16:22:30.680Z,29.90
2018-07-20T16:24:59.698Z,29.90
2018-07-20T16:27:28.549Z,29.70
2018-07-20T16:29:57.384Z,29.50
2018-07-20T16:32:26.095Z,29.30
2018-07-20T16:34:55.115Z,29.30
2018-07-20T16:37:24.123Z,29.20
2018-07-20T16:39:53.033Z,29.20
2018-07-20T16:42:21.866Z,29.10
2018-07-20T16:44:50.749Z,29.00
2018-07-20T16:47:19.691Z,28.90
2018-07-20T16:49:48.547Z,28.70
2018-07-20T16:52:17.357Z,28.70
2018-07-20T16:54:46.088Z,28.60
2018-07-20T16:57:15.041Z,28.50
2018-07-20T16:59:43.845Z,28.40
2018-07-20T17:02:12.524Z,28.40
2018-07-20T17:04:42.119Z,28.40
2018-07-20T17:07:11.056Z,28.30
2018-07-20T17:09:39.874Z,28.20
2018-07-20T17:12:08.985Z,28.30
2018-07-20T17:14:38.062Z,28.20
2018-07-20T17:17:06.790Z,28.10
2018-07-20T17:19:35.601Z,28.10
2018-07-20T17:22:04.632Z,28.00
2018-07-20T17:24:33.444Z,28.00
2018-07-20T17:27:02.220Z,27.90
2018-07-20T17:29:31.090Z,27.70
2018-07-20T17:31:59.786Z,27.60
2018-07-20T17:34:28.584Z,27.40
2018-07-20T17:36:57.327Z,27.40
2018-07-20T17:39:26.185Z,27.20
2018-07-20T17:41:54.991Z,27.10
2018-07-20T17:44:23.733Z,27.10
2018-07-20T17:46:52.513Z,27.00
2018-07-20T17:49:21.371Z,26.90
2018-07-20T17:51:50.315Z,26.80
2018-07-20T17:56:47.609Z,26.70
2018-07-20T17:59:16.441Z,26.60
2018-07-20T18:01:45.245Z,26.50
2018-07-20T18:04:14.142Z,26.50
2018-07-20T18:06:42.780Z,26.40
2018-07-20T18:09:11.553Z,26.30
2018-07-20T18:11:40.273Z,26.30
2018-07-20T18:14:09.010Z,26.30
2018-07-20T18:16:37.636Z,26.40
2018-07-20T18:19:06.407Z,26.50
2018-07-20T18:21:35.177Z,26.50
2018-07-20T18:24:04.009Z,26.40
2018-07-20T18:26:32.790Z,26.30
2018-07-20T18:29:01.519Z,26.30
2018-07-20T18:33:58.823Z,26.20
2018-07-20T18:36:27.512Z,26.20
2018-07-20T18:38:56.222Z,26.10
2018-07-20T18:41:25.067Z,26.10
2018-07-20T18:43:53.785Z,26.10
2018-07-20T18:46:22.549Z,26.00
2018-07-20T18:48:51.386Z,25.90
2018-07-20T18:51:20.245Z,25.90
2018-07-20T18:53:49.743Z,25.90
2018-07-20T18:56:18.552Z,25.80
2018-07-20T18:58:47.401Z,25.70
2018-07-20T19:01:16.214Z,25.60
2018-07-20T19:03:45.029Z,25.50
2018-07-20T19:06:13.856Z,25.50
2018-07-20T19:08:42.661Z,25.40
2018-07-20T19:11:11.421Z,25.40
2018-07-20T19:13:40.057Z,25.30
2018-07-20T19:16:08.820Z,25.30
2018-07-20T19:18:37.500Z,25.10
2018-07-20T19:21:06.290Z,25.00
2018-07-20T19:23:35.077Z,25.00
2018-07-20T19:26:03.863Z,24.90
2018-07-20T19:28:32.913Z,24.80
2018-07-20T19:31:01.711Z,24.70
2018-07-20T19:33:30.584Z,24.70
2018-07-20T19:35:59.355Z,24.50
2018-07-20T19:38:28.159Z,24.40
2018-07-20T19:40:56.925Z,24.50
2018-07-20T19:43:25.843Z,24.40
2018-07-20T19:45:54.640Z,24.30
2018-07-20T19:48:24.316Z,24.30
2018-07-20T19:50:53.082Z,24.20
2018-07-20T19:53:21.800Z,24.20
2018-07-20T19:55:50.618Z,24.10
2018-07-20T19:58:19.232Z,24.00
2018-07-20T20:00:47.972Z,23.90
2018-07-20T20:03:16.865Z,23.80
2018-07-20T20:05:45.642Z,23.80
2018-07-20T20:08:14.421Z,23.70
2018-07-20T20:10:43.311Z,23.60
2018-07-20T20:13:12.173Z,23.60
2018-07-20T20:15:41.004Z,23.50
2018-07-20T20:18:10.625Z,23.50
2018-07-20T20:20:39.421Z,23.50
2018-07-20T20:23:08.190Z,23.50
2018-07-20T20:25:36.961Z,23.50
2018-07-20T20:28:05.623Z,23.50
2018-07-20T20:30:34.446Z,23.50
2018-07-20T20:33:03.106Z,23.50
2018-07-20T20:35:31.774Z,23.50
2018-07-20T20:38:00.450Z,23.50
2018-07-20T20:40:29.229Z,23.50
2018-07-20T20:42:57.940Z,23.40
2018-07-20T20:47:54.941Z,23.40
2018-07-20T20:50:23.687Z,23.40
2018-07-20T20:52:52.347Z,23.40
2018-07-20T20:55:21.007Z,23.30
2018-07-20T20:57:49.736Z,23.30
2018-07-20T21:00:19.072Z,23.30
2018-07-20T21:02:47.736Z,23.30
2018-07-20T21:05:16.544Z,23.30
2018-07-20T21:10:13.690Z,23.20
2018-07-20T21:12:42.409Z,23.20
2018-07-20T21:15:11.186Z,23.10
2018-07-20T21:17:39.924Z,23.10
2018-07-20T21:20:08.679Z,23.00
2018-07-20T21:22:37.426Z,23.00
2018-07-20T21:25:06.982Z,22.90
2018-07-20T21:30:04.290Z,22.80
2018-07-20T21:32:33.038Z,22.80
2018-07-20T21:35:01.799Z,22.80
2018-07-20T21:37:30.577Z,22.80
2018-07-20T21:39:59.324Z,22.70
2018-07-20T21:42:28.073Z,22.70
2018-07-20T21:44:56.861Z,22.70
2018-07-20T21:47:25.705Z,22.70
2018-07-20T21:49:54.470Z,22.70
2018-07-20T21:52:23.225Z,22.70
2018-07-20T21:54:51.949Z,22.70
2018-07-20T21:57:20.736Z,22.70
2018-07-20T21:59:50.690Z,22.70
2018-07-20T22:02:19.411Z,22.70
2018-07-20T22:04:48.152Z,22.70
2018-07-20T22:07:16.887Z,22.80
2018-07-20T22:09:45.666Z,22.80
2018-07-20T22:12:14.467Z,22.80
2018-07-20T22:14:43.279Z,22.70
2018-07-20T22:17:12.017Z,22.70
2018-07-20T22:19:40.775Z,22.70
2018-07-20T22:22:09.480Z,22.60
2018-07-20T22:24:38.211Z,22.50
2018-07-20T22:27:06.935Z,22.50
2018-07-20T22:29:35.601Z,22.50
2018-07-20T22:32:04.303Z,22.50
2018-07-20T22:34:33.058Z,22.30
2018-07-20T22:37:02.302Z,22.00
2018-07-20T22:39:31.051Z,21.90
2018-07-20T22:41:59.744Z,21.70
2018-07-20T22:44:28.491Z,21.80
2018-07-20T22:46:57.198Z,21.80
2018-07-20T22:49:25.904Z,21.80
2018-07-20T22:51:54.968Z,21.70
2018-07-20T22:54:23.698Z,21.70
2018-07-20T22:56:52.388Z,21.70
2018-07-20T22:59:21.073Z,21.70
2018-07-20T23:01:49.832Z,21.60
2018-07-20T23:04:18.578Z,21.60
2018-07-20T23:06:47.287Z,21.70
2018-07-20T23:11:44.305Z,21.70
2018-07-20T23:14:12.991Z,21.60
2018-07-20T23:16:41.723Z,21.70
2018-07-20T23:19:10.464Z,21.70
2018-07-20T23:21:39.175Z,21.70
2018-07-20T23:24:07.878Z,21.60
2018-07-20T23:26:36.646Z,21.60
2018-07-20T23:29:05.402Z,21.50
2018-07-20T23:31:34.114Z,21.50
2018-07-20T23:34:02.850Z,21.50
2018-07-20T23:36:31.630Z,21.50
2018-07-20T23:39:00.950Z,21.50
2018-07-20T23:41:29.778Z,21.50
2018-07-20T23:43:58.606Z,21.40
2018-07-20T23:46:27.332Z,21.40
2018-07-20T23:51:24.430Z,21.50
2018-07-20T23:53:53.113Z,21.50
2018-07-20T23:56:21.804Z,21.50
2018-07-20T23:58:50.554Z,21.50
